Time;durP1;ratioP1;P1;durP2;ratioP2;P2;SDS_P1;SDS_P2;PMS_P1;PMS_P2;Temp;Humidity;BMP_temperature;BMP_pressure;BME280_temperature;BME280_humidity;BME280_pressure;Samples;Min_cycle;Max_cycle;Signal;HPM_P1;HPM_P2
2023/08/26 00:00:08;;;;;;;14.80;5.07;;;25.60;86.20;;;;;;5066782;28;20029;-61
2023/08/26 00:02:34;;;;;;;12.98;4.65;;;25.60;86.30;;;;;;5048615;28;20033;-61
2023/08/26 00:04:59;;;;;;;9.55;5.15;;;25.60;86.30;;;;;;5065204;28;20032;-61
2023/08/26 00:07:25;;;;;;;12.55;5.15;;;25.60;86.20;;;;;;5065944;28;20530;-61
2023/08/26 00:09:50;;;;;;;9.48;4.95;;;25.50;86.20;;;;;;5066877;28;20053;-61
2023/08/26 00:12:16;;;;;;;7.82;4.72;;;25.50;86.20;;;;;;5066732;28;20044;-61
2023/08/26 00:14:41;;;;;;;10.43;5.57;;;25.50;86.20;;;;;;5063768;28;20033;-61
2023/08/26 00:17:07;;;;;;;15.93;5.55;;;25.50;86.30;;;;;;5048590;28;20461;-61
2023/08/26 00:19:32;;;;;;;8.55;5.18;;;25.50;86.40;;;;;;5065023;28;20405;-61
2023/08/26 00:22:00;;;;;;;10.05;4.93;;;25.50;86.50;;;;;;5065218;28;20025;-61
2023/08/26 00:24:25;;;;;;;8.65;5.32;;;25.50;86.50;;;;;;5063128;28;20033;-61
2023/08/26 00:26:51;;;;;;;10.82;5.78;;;25.50;86.50;;;;;;5059700;28;20083;-61
2023/08/26 00:29:16;;;;;;;8.80;4.80;;;25.40;86.50;;;;;;5064235;28;20113;-61
2023/08/26 00:31:42;;;;;;;9.38;5.47;;;25.40;86.50;;;;;;5066324;28;20056;-60
2023/08/26 00:34:08;;;;;;;11.18;4.97;;;25.40;86.40;;;;;;5065217;28;20041;-61
2023/08/26 00:36:33;;;;;;;7.32;4.55;;;25.40;86.50;;;;;;5066107;28;20032;-61
2023/08/26 00:38:59;;;;;;;12.07;4.85;;;25.50;86.60;;;;;;5064712;28;20033;-62
2023/08/26 00:41:24;;;;;;;9.63;5.55;;;25.40;86.50;;;;;;5030873;28;20036;-62
2023/08/26 00:43:50;;;;;;;9.75;5.18;;;25.40;86.60;;;;;;5061818;28;20018;-61
2023/08/26 00:46:15;;;;;;;10.20;5.38;;;25.40;87.20;;;;;;5060303;28;20033;-61
2023/08/26 00:48:41;;;;;;;11.63;5.78;;;25.40;86.70;;;;;;5031164;28;20116;-61
2023/08/26 00:51:06;;;;;;;9.98;5.35;;;25.40;86.80;;;;;;5031415;28;20036;-61
2023/08/26 00:53:32;;;;;;;7.32;5.03;;;25.40;86.90;;;;;;5063326;28;20028;-61
2023/08/26 00:55:58;;;;;;;8.85;5.03;;;25.40;86.90;;;;;;5048020;28;20021;-61
2023/08/26 00:58:23;;;;;;;8.70;4.78;;;25.40;86.90;;;;;;5064643;28;20025;-61
2023/08/26 01:00:49;;;;;;;6.63;4.85;;;25.30;86.70;;;;;;5047706;28;20037;-61
2023/08/26 01:03:14;;;;;;;8.23;5.18;;;25.40;86.80;;;;;;5046419;28;20028;-61
2023/08/26 01:05:40;;;;;;;8.20;4.70;;;25.30;86.80;;;;;;5063665;28;20075;-61
2023/08/26 01:08:06;;;;;;;5.93;4.60;;;25.30;86.90;;;;;;5064116;28;20081;-61
2023/08/26 01:11:07;;;;;;;8.98;4.60;;;25.30;87.00;;;;;;5064222;28;20032;-61
2023/08/26 01:13:40;;;;;;;12.10;4.82;;;25.30;87.00;;;;;;5064178;28;20531;-62
2023/08/26 01:16:05;;;;;;;8.07;4.70;;;25.30;87.20;;;;;;5048248;28;20064;-61
2023/08/26 01:18:31;;;;;;;10.57;5.00;;;25.30;87.20;;;;;;5047170;28;20028;-61
2023/08/26 01:20:56;;;;;;;6.95;4.05;;;25.20;87.20;;;;;;5047391;28;20073;-61
2023/08/26 01:23:41;;;;;;;7.72;4.60;;;25.20;87.30;;;;;;5061823;28;20025;-61
2023/08/26 01:26:07;;;;;;;7.82;4.97;;;25.20;87.30;;;;;;5063888;28;20037;-62
2023/08/26 01:28:32;;;;;;;8.40;4.68;;;25.20;87.30;;;;;;5065187;28;20029;-62
2023/08/26 01:30:59;;;;;;;8.63;5.03;;;25.20;87.20;;;;;;5064136;28;20436;-61
2023/08/26 01:33:25;;;;;;;8.75;5.30;;;25.20;87.20;;;;;;5047628;28;20052;-61
2023/08/26 01:35:54;;;;;;;8.30;4.75;;;25.20;87.20;;;;;;5047484;28;20029;-61
2023/08/26 01:38:19;;;;;;;8.23;4.80;;;25.20;87.20;;;;;;5044455;28;20084;-61
2023/08/26 01:40:49;;;;;;;8.60;4.75;;;25.20;87.20;;;;;;5043673;28;20051;-61
2023/08/26 01:43:15;;;;;;;7.40;4.40;;;25.20;87.20;;;;;;5045242;28;20284;-61
2023/08/26 01:45:40;;;;;;;6.47;4.63;;;25.10;87.20;;;;;;5043641;28;20025;-61
2023/08/26 01:48:06;;;;;;;8.40;4.72;;;25.10;87.30;;;;;;5037359;28;20495;-61
2023/08/26 01:50:32;;;;;;;6.78;4.18;;;25.10;87.30;;;;;;5064887;28;20041;-61
2023/08/26 01:52:57;;;;;;;5.85;4.22;;;25.10;87.30;;;;;;5064067;28;20111;-61
2023/08/26 01:55:23;;;;;;;9.20;4.72;;;25.10;87.40;;;;;;5064745;28;20025;-61
2023/08/26 01:57:48;;;;;;;8.82;4.25;;;25.10;87.30;;;;;;5061759;28;20025;-61
2023/08/26 02:00:15;;;;;;;7.15;4.28;;;25.10;87.30;;;;;;5045638;28;20037;-62
2023/08/26 02:02:41;;;;;;;7.78;4.50;;;25.10;87.30;;;;;;5064638;28;20473;-61
2023/08/26 02:05:07;;;;;;;7.22;4.25;;;25.10;87.50;;;;;;5064548;28;20048;-61
2023/08/26 02:07:32;;;;;;;8.73;3.97;;;25.10;87.80;;;;;;5050248;28;20030;-61
2023/08/26 02:09:58;;;;;;;13.35;5.25;;;25.10;87.60;;;;;;5043538;28;20065;-62
2023/08/26 02:12:24;;;;;;;7.90;5.05;;;25.10;87.70;;;;;;5044380;28;20030;-62
2023/08/26 02:14:49;;;;;;;9.40;4.93;;;25.10;87.70;;;;;;5044683;28;20033;-62
2023/08/26 02:17:15;;;;;;;7.28;5.13;;;25.10;87.70;;;;;;5049099;28;20105;-62
2023/08/26 02:19:40;;;;;;;8.40;4.70;;;25.10;87.70;;;;;;5063758;28;20064;-62
2023/08/26 02:22:06;;;;;;;7.55;4.40;;;25.10;87.60;;;;;;5046378;28;20029;-59
2023/08/26 02:24:31;;;;;;;6.60;4.15;;;25.10;87.60;;;;;;5063141;28;20052;-59
2023/08/26 02:26:57;;;;;;;12.23;4.43;;;25.10;87.60;;;;;;5063376;28;20080;-59
2023/08/26 02:29:22;;;;;;;7.63;4.30;;;25.10;87.40;;;;;;5062858;28;20093;-59
2023/08/26 02:31:48;;;;;;;6.97;4.35;;;25.10;87.40;;;;;;5064335;28;20033;-59
2023/08/26 02:34:13;;;;;;;9.07;4.07;;;25.00;87.40;;;;;;5063089;28;20033;-62
2023/08/26 02:36:39;;;;;;;10.45;4.40;;;25.10;87.50;;;;;;5061296;28;20033;-59
2023/08/26 02:39:04;;;;;;;11.75;4.97;;;25.00;87.50;;;;;;5062553;28;20468;-59
2023/08/26 02:41:30;;;;;;;11.13;4.93;;;25.00;87.50;;;;;;5062872;28;20028;-59
2023/08/26 02:43:55;;;;;;;9.30;4.30;;;25.00;87.50;;;;;;5063146;28;20029;-59
2023/08/26 02:46:21;;;;;;;10.45;5.10;;;25.00;87.40;;;;;;5045612;28;20446;-58
2023/08/26 02:48:46;;;;;;;6.20;4.95;;;25.00;87.50;;;;;;5044641;28;20461;-59
2023/08/26 02:51:12;;;;;;;6.80;5.50;;;25.00;88.30;;;;;;5043490;28;20036;-59
2023/08/26 02:53:38;;;;;;;11.65;5.55;;;25.00;87.30;;;;;;5042824;28;20033;-59
2023/08/26 02:56:03;;;;;;;7.10;4.97;;;25.00;87.20;;;;;;5053993;28;20417;-59
2023/08/26 02:58:29;;;;;;;9.55;5.13;;;25.00;87.30;;;;;;5028714;28;20025;-59
2023/08/26 03:00:55;;;;;;;8.32;5.13;;;25.00;87.30;;;;;;5063496;28;20021;-59
2023/08/26 03:03:20;;;;;;;7.82;5.05;;;25.00;87.20;;;;;;5046054;28;20033;-59
2023/08/26 03:05:46;;;;;;;6.55;4.30;;;24.90;87.20;;;;;;5064175;28;20028;-60
2023/08/26 03:08:12;;;;;;;5.13;4.20;;;24.90;87.20;;;;;;5064775;28;20025;-59
2023/08/26 03:10:37;;;;;;;9.30;4.25;;;24.90;87.20;;;;;;5066389;28;20092;-59
2023/08/26 03:13:03;;;;;;;10.60;5.10;;;24.90;87.00;;;;;;5049369;28;20044;-60
2023/08/26 03:15:29;;;;;;;8.07;4.68;;;24.90;87.10;;;;;;5053018;28;20408;-60
2023/08/26 03:17:55;;;;;;;7.10;4.57;;;24.90;87.80;;;;;;5029705;28;20037;-59
2023/08/26 03:20:21;;;;;;;5.00;4.30;;;24.90;87.20;;;;;;5062643;28;20057;-60
2023/08/26 03:22:47;;;;;;;10.95;4.72;;;24.90;87.20;;;;;;5047307;28;20030;-60
2023/08/26 03:25:12;;;;;;;7.93;4.72;;;24.90;87.20;;;;;;5045999;28;20033;-60
2023/08/26 03:27:38;;;;;;;7.20;4.28;;;24.90;87.20;;;;;;5045835;28;20041;-59
2023/08/26 03:30:04;;;;;;;6.70;4.45;;;24.90;87.10;;;;;;5046081;28;20021;-60
2023/08/26 03:32:29;;;;;;;5.10;4.55;;;24.90;87.10;;;;;;5047338;28;20033;-60
2023/08/26 03:34:55;;;;;;;9.57;5.00;;;24.90;87.10;;;;;;5047457;28;20045;-60
2023/08/26 03:37:20;;;;;;;7.05;4.63;;;24.80;87.10;;;;;;5046051;28;20480;-60
2023/08/26 03:39:46;;;;;;;8.63;4.50;;;24.80;87.20;;;;;;5047402;28;20029;-60
2023/08/26 03:42:12;;;;;;;10.15;4.60;;;24.80;87.30;;;;;;5045856;28;20037;-60
2023/08/26 03:44:37;;;;;;;7.10;5.00;;;24.80;87.20;;;;;;5047299;28;20037;-60
2023/08/26 03:47:03;;;;;;;7.75;4.95;;;24.80;87.30;;;;;;5045865;28;20108;-59
2023/08/26 03:49:29;;;;;;;8.82;4.85;;;24.80;87.30;;;;;;5045880;28;20037;-60
2023/08/26 03:51:55;;;;;;;10.25;4.97;;;24.80;87.30;;;;;;5045734;28;20068;-59
2023/08/26 03:54:20;;;;;;;8.45;4.95;;;24.80;87.40;;;;;;5045131;28;20047;-60
2023/08/26 03:56:46;;;;;;;7.68;4.53;;;24.70;87.30;;;;;;5046936;28;20048;-60
2023/08/26 03:59:11;;;;;;;12.77;4.47;;;24.70;87.40;;;;;;5065480;28;20107;-60
2023/08/26 04:01:37;;;;;;;6.60;4.72;;;24.70;87.60;;;;;;5065576;28;20035;-60
2023/08/26 04:04:03;;;;;;;8.02;4.47;;;24.70;87.60;;;;;;5047813;28;20132;-60
2023/08/26 04:06:28;;;;;;;6.35;4.25;;;24.70;87.60;;;;;;5066805;28;20124;-59
2023/08/26 04:08:54;;;;;;;6.90;3.90;;;24.70;87.70;;;;;;5065322;28;20100;-60
2023/08/26 04:11:19;;;;;;;10.38;4.60;;;24.70;87.70;;;;;;5065419;28;20385;-59
2023/08/26 04:13:45;;;;;;;9.55;4.10;;;24.60;87.60;;;;;;5063240;28;20064;-59
2023/08/26 04:16:11;;;;;;;7.35;4.10;;;24.70;87.70;;;;;;5063652;28;20393;-59
2023/08/26 04:18:36;;;;;;;7.28;4.25;;;24.70;87.70;;;;;;5048363;28;20056;-59
2023/08/26 04:21:02;;;;;;;8.07;4.38;;;24.60;87.70;;;;;;5066493;28;20091;-59
2023/08/26 04:23:28;;;;;;;10.65;4.28;;;24.60;87.70;;;;;;5063905;28;20063;-59
2023/08/26 04:25:59;;;;;;;8.60;4.60;;;24.60;87.80;;;;;;5048441;28;20029;-59
2023/08/26 04:28:24;;;;;;;9.20;4.30;;;24.60;88.00;;;;;;5064866;28;20032;-59
2023/08/26 04:30:50;;;;;;;8.00;4.28;;;24.60;88.20;;;;;;5066151;28;20064;-60
2023/08/26 04:33:16;;;;;;;6.43;4.15;;;24.60;88.50;;;;;;5029270;28;20040;-60
2023/08/26 04:35:41;;;;;;;6.43;4.40;;;24.60;88.60;;;;;;5063226;28;20032;-58
2023/08/26 04:38:07;;;;;;;7.30;3.97;;;24.60;88.50;;;;;;5064602;28;20033;-59
2023/08/26 04:40:32;;;;;;;8.65;4.35;;;24.60;88.50;;;;;;5066091;28;20087;-59
2023/08/26 04:42:58;;;;;;;7.15;3.97;;;24.60;88.60;;;;;;5051433;28;20055;-59
2023/08/26 04:45:23;;;;;;;12.70;4.30;;;24.50;88.50;;;;;;5046097;28;20030;-59
2023/08/26 04:47:49;;;;;;;9.23;3.90;;;24.50;88.60;;;;;;5044577;28;20018;-59
2023/08/26 04:50:15;;;;;;;8.68;4.00;;;24.50;88.60;;;;;;5045914;28;20473;-59
2023/08/26 04:52:42;;;;;;;6.63;3.88;;;24.50;88.60;;;;;;5052177;28;20082;-59
2023/08/26 04:55:08;;;;;;;6.95;3.90;;;24.50;88.70;;;;;;5063712;28;20029;-59
2023/08/26 04:57:34;;;;;;;7.90;3.80;;;24.50;88.70;;;;;;5047875;28;20154;-59
2023/08/26 04:59:59;;;;;;;8.63;4.00;;;24.50;88.80;;;;;;5064353;28;20020;-59
2023/08/26 05:02:25;;;;;;;6.13;3.78;;;24.50;88.80;;;;;;5063264;28;20168;-59
2023/08/26 05:04:51;;;;;;;8.00;4.07;;;24.50;88.80;;;;;;5064265;28;20025;-60
2023/08/26 05:07:17;;;;;;;8.90;3.70;;;24.50;88.80;;;;;;5064425;28;20147;-59
2023/08/26 05:09:43;;;;;;;7.95;3.97;;;24.40;88.90;;;;;;5064236;28;20060;-59
2023/08/26 05:12:15;;;;;;;6.13;3.67;;;24.40;89.00;;;;;;5065051;28;20106;-59
2023/08/26 05:14:40;;;;;;;8.30;3.80;;;24.40;89.10;;;;;;5064151;28;20064;-59
2023/08/26 05:17:06;;;;;;;6.40;3.45;;;24.40;89.80;;;;;;5065350;28;20025;-59
2023/08/26 05:19:32;;;;;;;5.57;3.60;;;24.40;89.30;;;;;;5063896;28;20098;-59
2023/08/26 05:21:57;;;;;;;8.95;3.50;;;24.40;89.30;;;;;;5065305;28;20120;-59
2023/08/26 05:24:23;;;;;;;11.48;3.78;;;24.40;89.30;;;;;;5065678;28;20036;-59
2023/08/26 05:26:49;;;;;;;6.40;3.45;;;24.40;89.40;;;;;;5047259;28;20393;-59
2023/08/26 05:29:14;;;;;;;11.25;3.63;;;24.40;89.40;;;;;;5065369;28;20064;-59
2023/08/26 05:31:40;;;;;;;8.90;3.97;;;24.40;89.40;;;;;;5065623;28;20530;-59
2023/08/26 05:34:05;;;;;;;5.20;3.55;;;24.40;89.40;;;;;;5047221;28;20040;-59
2023/08/26 05:36:31;;;;;;;8.00;3.58;;;24.30;89.40;;;;;;5063674;28;20025;-59
2023/08/26 05:38:56;;;;;;;5.97;3.33;;;24.30;89.40;;;;;;5030484;28;20029;-59
2023/08/26 05:41:22;;;;;;;7.57;4.05;;;24.30;89.50;;;;;;5064823;28;20025;-59
2023/08/26 05:43:49;;;;;;;7.00;3.88;;;24.30;89.50;;;;;;5064811;28;20064;-59
2023/08/26 05:46:15;;;;;;;5.93;3.25;;;24.30;89.50;;;;;;5063398;28;20021;-59
2023/08/26 05:48:40;;;;;;;8.50;3.30;;;24.30;89.50;;;;;;5061622;28;20036;-62
2023/08/26 05:51:06;;;;;;;6.45;3.65;;;24.30;89.50;;;;;;5062860;28;20078;-60
2023/08/26 05:53:31;;;;;;;4.63;3.25;;;24.20;89.50;;;;;;5064701;28;20024;-60
2023/08/26 05:55:58;;;;;;;8.48;4.15;;;24.20;89.40;;;;;;5045126;28;20025;-60
2023/08/26 05:58:23;;;;;;;10.60;3.78;;;24.20;89.60;;;;;;5043356;28;20037;-60
2023/08/26 06:00:49;;;;;;;7.32;3.42;;;24.20;89.70;;;;;;5044557;28;20053;-60
2023/08/26 06:03:15;;;;;;;7.40;3.60;;;24.30;89.70;;;;;;5044552;28;20083;-59
2023/08/26 06:05:41;;;;;;;8.98;3.50;;;24.30;89.70;;;;;;5044888;28;20030;-60
2023/08/26 06:08:06;;;;;;;8.38;3.40;;;24.30;89.80;;;;;;5057117;28;20125;-60
2023/08/26 06:10:32;;;;;;;7.07;3.30;;;24.20;90.20;;;;;;5062582;28;20037;-59
2023/08/26 06:12:57;;;;;;;5.15;3.42;;;24.30;90.00;;;;;;5063238;28;20025;-59
2023/08/26 06:15:23;;;;;;;6.43;3.60;;;24.20;90.00;;;;;;5045540;28;20025;-60
2023/08/26 06:17:49;;;;;;;4.97;3.58;;;24.20;89.90;;;;;;5046439;28;20051;-59
2023/08/26 06:20:14;;;;;;;10.85;3.33;;;24.20;89.80;;;;;;5061354;28;20037;-59
2023/08/26 06:22:41;;;;;;;5.60;3.15;;;24.20;89.90;;;;;;5062284;28;20025;-62
2023/08/26 06:25:07;;;;;;;8.20;3.63;;;24.20;89.90;;;;;;5063769;28;20021;-60
2023/08/26 06:27:33;;;;;;;6.60;3.42;;;24.20;89.70;;;;;;5064427;28;20116;-60
2023/08/26 06:30:02;;;;;;;10.40;3.67;;;24.30;89.70;;;;;;5024380;28;20026;-59
2023/08/26 06:32:27;;;;;;;5.82;3.33;;;24.20;90.10;;;;;;5023416;28;20118;-59
2023/08/26 06:34:53;;;;;;;7.45;3.50;;;24.20;89.60;;;;;;5024805;28;20121;-59
2023/08/26 06:37:19;;;;;;;6.05;3.47;;;24.20;89.50;;;;;;5023428;28;20546;-58
2023/08/26 06:39:44;;;;;;;5.32;3.20;;;24.20;89.50;;;;;;5048420;28;20087;-59
2023/08/26 06:42:10;;;;;;;9.52;3.47;;;24.20;89.40;;;;;;5065901;28;20088;-59
2023/08/26 06:44:36;;;;;;;5.28;3.30;;;24.20;89.30;;;;;;5066752;28;20040;-60
2023/08/26 06:47:02;;;;;;;5.75;3.10;;;24.20;89.30;;;;;;5066081;28;20033;-60
2023/08/26 06:49:27;;;;;;;5.82;3.10;;;24.20;89.30;;;;;;5048012;28;20112;-59
2023/08/26 06:51:53;;;;;;;8.77;3.30;;;24.30;89.30;;;;;;5046750;28;20175;-60
2023/08/26 06:54:18;;;;;;;10.15;3.53;;;24.30;89.20;;;;;;5046422;28;20473;-60
2023/08/26 06:56:44;;;;;;;5.28;3.22;;;24.20;89.10;;;;;;5046919;28;20469;-59
2023/08/26 06:59:09;;;;;;;5.03;2.97;;;24.30;88.90;;;;;;5060828;28;20034;-59
2023/08/26 07:01:36;;;;;;;5.63;3.15;;;24.30;88.90;;;;;;5064470;28;20536;-60
2023/08/26 07:04:05;;;;;;;4.70;3.38;;;24.30;88.70;;;;;;5046454;28;20045;-59
2023/08/26 07:06:31;;;;;;;5.88;3.00;;;24.20;88.60;;;;;;5047883;28;20456;-60
2023/08/26 07:08:57;;;;;;;7.25;2.97;;;24.30;88.50;;;;;;5045251;28;20025;-61
2023/08/26 07:11:22;;;;;;;6.25;3.17;;;24.30;88.30;;;;;;5046557;28;20033;-59
2023/08/26 07:13:48;;;;;;;5.63;3.13;;;24.30;88.20;;;;;;5046109;28;20048;-59
2023/08/26 07:16:13;;;;;;;7.13;2.97;;;24.30;88.10;;;;;;5060762;28;20029;-59
2023/08/26 07:18:39;;;;;;;6.00;2.85;;;24.30;88.00;;;;;;5065177;28;20033;-59
2023/08/26 07:21:04;;;;;;;5.95;3.03;;;24.30;88.00;;;;;;5066361;28;20031;-59
2023/08/26 07:23:32;;;;;;;5.10;3.28;;;24.30;88.00;;;;;;5061076;28;20032;-59
2023/08/26 07:25:57;;;;;;;5.85;3.00;;;24.30;88.00;;;;;;5046059;28;20041;-59
2023/08/26 07:28:23;;;;;;;7.20;3.38;;;24.30;87.90;;;;;;5046076;28;20021;-62
2023/08/26 07:30:48;;;;;;;4.38;2.92;;;24.30;87.80;;;;;;5047313;28;20029;-62
2023/08/26 07:33:14;;;;;;;6.50;3.45;;;24.30;87.70;;;;;;5046017;28;20036;-62
2023/08/26 07:35:39;;;;;;;7.10;3.00;;;24.30;87.60;;;;;;5061704;28;20037;-62
2023/08/26 07:38:05;;;;;;;6.20;3.40;;;24.20;87.60;;;;;;5049233;28;20083;-62
2023/08/26 07:40:31;;;;;;;6.05;3.15;;;24.20;87.50;;;;;;5065959;28;20094;-62
2023/08/26 07:42:56;;;;;;;8.18;3.30;;;24.20;87.50;;;;;;5060461;28;20041;-59
2023/08/26 07:45:22;;;;;;;5.72;3.15;;;24.30;87.50;;;;;;5045889;28;20028;-59
2023/08/26 07:47:48;;;;;;;6.25;3.20;;;24.30;87.60;;;;;;5044536;28;20018;-59
2023/08/26 07:50:13;;;;;;;4.97;3.17;;;24.30;87.60;;;;;;5047015;28;20052;-62
2023/08/26 07:52:39;;;;;;;5.57;3.10;;;24.20;87.40;;;;;;5044983;28;20026;-59
2023/08/26 07:55:05;;;;;;;7.43;3.35;;;24.30;87.50;;;;;;5066176;28;20096;-60
2023/08/26 07:57:31;;;;;;;5.65;3.10;;;24.30;87.50;;;;;;5065334;28;20025;-60
2023/08/26 07:59:56;;;;;;;5.10;2.90;;;24.30;87.30;;;;;;5065239;28;20423;-62
2023/08/26 08:02:22;;;;;;;5.53;2.80;;;24.20;87.30;;;;;;5056601;28;20476;-62
2023/08/26 08:04:47;;;;;;;6.75;3.25;;;24.30;87.30;;;;;;5047023;28;20040;-62
2023/08/26 08:07:13;;;;;;;12.38;3.42;;;24.30;87.50;;;;;;5045405;28;20026;-60
2023/08/26 08:09:39;;;;;;;6.57;3.30;;;24.20;87.60;;;;;;5044358;28;20125;-60
2023/08/26 08:12:05;;;;;;;9.80;3.50;;;24.20;87.70;;;;;;5045819;28;20041;-62
2023/08/26 08:14:30;;;;;;;16.38;3.38;;;24.20;88.10;;;;;;5060033;28;20083;-59
2023/08/26 08:16:56;;;;;;;15.57;4.13;;;24.20;88.10;;;;;;5044743;28;20466;-60
2023/08/26 08:19:23;;;;;;;11.90;3.90;;;24.10;88.30;;;;;;5044835;28;20029;-60
2023/08/26 08:21:48;;;;;;;12.77;3.67;;;24.10;88.30;;;;;;5036701;28;20069;-62
2023/08/26 08:24:14;;;;;;;16.65;4.15;;;24.10;88.60;;;;;;5044702;28;20017;-60
2023/08/26 08:26:43;;;;;;;32.08;4.95;;;24.10;88.50;;;;;;5045920;28;20037;-62
2023/08/26 08:29:12;;;;;;;34.78;5.75;;;24.10;88.60;;;;;;5044683;28;20040;-62
2023/08/26 08:31:37;;;;;;;42.35;7.85;;;24.10;88.70;;;;;;5044167;28;20040;-62
2023/08/26 08:34:03;;;;;;;64.07;9.57;;;24.10;89.00;;;;;;5045731;28;20413;-62
2023/08/26 08:36:29;;;;;;;92.40;13.32;;;24.10;88.90;;;;;;5045263;28;20057;-62
2023/08/26 08:38:56;;;;;;;90.15;12.43;;;24.10;89.50;;;;;;5045813;28;20235;-62
2023/08/26 08:41:22;;;;;;;94.78;12.02;;;24.10;89.70;;;;;;5044386;28;20033;-62
2023/08/26 08:43:48;;;;;;;117.68;13.75;;;24.10;90.00;;;;;;5043372;28;20282;-62
2023/08/26 08:46:14;;;;;;;76.20;11.07;;;24.10;90.00;;;;;;5051385;28;20079;-61
2023/08/26 08:48:40;;;;;;;77.60;11.73;;;24.10;90.00;;;;;;5027934;28;20022;-62
2023/08/26 08:51:06;;;;;;;91.35;12.23;;;24.10;89.80;;;;;;5030064;28;20025;-62
2023/08/26 08:53:31;;;;;;;89.70;12.32;;;24.10;89.50;;;;;;5050971;28;20041;-60
2023/08/26 08:55:59;;;;;;;86.68;12.32;;;24.10;89.50;;;;;;5044052;28;20094;-60
2023/08/26 08:58:24;;;;;;;92.18;11.95;;;24.20;89.50;;;;;;5027901;28;20513;-60
2023/08/26 09:00:50;;;;;;;84.60;13.40;;;24.20;89.60;;;;;;5043818;28;20044;-60
2023/08/26 09:03:16;;;;;;;141.48;16.55;;;24.20;89.40;;;;;;5035518;28;20029;-60
2023/08/26 09:05:41;;;;;;;111.32;15.13;;;24.20;89.60;;;;;;5046096;28;20362;-60
2023/08/26 09:08:08;;;;;;;125.97;17.30;;;24.20;89.50;;;;;;5027475;28;20109;-61
2023/08/26 09:10:33;;;;;;;150.18;18.05;;;24.20;89.40;;;;;;5027719;28;20088;-60
2023/08/26 09:12:59;;;;;;;160.07;19.38;;;24.20;89.50;;;;;;5063709;28;20040;-58
2023/08/26 09:15:26;;;;;;;103.68;18.40;;;24.30;89.30;;;;;;5054312;28;20361;-59
2023/08/26 09:17:57;;;;;;;131.43;16.90;;;24.20;89.10;;;;;;5042377;28;20033;-60
2023/08/26 09:20:22;;;;;;;138.27;17.85;;;24.30;88.90;;;;;;5042772;28;20044;-59
2023/08/26 09:22:48;;;;;;;166.27;21.63;;;24.30;89.00;;;;;;5043430;28;20029;-59
2023/08/26 09:25:13;;;;;;;126.93;17.23;;;24.30;89.30;;;;;;5043195;28;20039;-60
2023/08/26 09:27:43;;;;;;;148.65;20.48;;;24.30;89.00;;;;;;5026925;28;20028;-60
2023/08/26 09:30:09;;;;;;;174.70;21.70;;;24.40;89.00;;;;;;5043386;28;20030;-60
2023/08/26 09:32:36;;;;;;;156.43;21.00;;;24.40;88.80;;;;;;5044939;28;20055;-60
2023/08/26 09:35:14;;;;;;;213.02;24.90;;;24.40;88.70;;;;;;5042883;28;20382;-60
2023/08/26 09:37:41;;;;;;;143.18;20.50;;;24.40;88.80;;;;;;5034063;28;20541;-59
2023/08/26 09:40:07;;;;;;;194.05;22.02;;;24.40;88.60;;;;;;5029143;28;20037;-60
2023/08/26 09:42:34;;;;;;;199.07;25.77;;;24.50;88.60;;;;;;5049473;28;20087;-60
2023/08/26 09:45:00;;;;;;;207.07;25.13;;;24.50;88.60;;;;;;5056141;28;20418;-60
2023/08/26 09:47:31;;;;;;;169.07;24.80;;;24.50;88.50;;;;;;5041141;28;20033;-60
2023/08/26 09:49:56;;;;;;;237.45;26.63;;;24.50;88.50;;;;;;5040237;28;20080;-60
2023/08/26 09:52:23;;;;;;;169.20;21.45;;;24.60;88.40;;;;;;5057244;28;20214;-60
2023/08/26 09:54:48;;;;;;;182.80;22.40;;;24.60;88.00;;;;;;5060648;28;20051;-60
2023/08/26 09:57:14;;;;;;;193.35;26.00;;;24.60;88.00;;;;;;5061143;28;20487;-59
2023/08/26 09:59:40;;;;;;;163.75;22.52;;;24.60;88.10;;;;;;5062501;28;20028;-59
2023/08/26 10:02:12;;;;;;;159.75;20.00;;;24.60;87.80;;;;;;5050056;28;20080;-60
2023/08/26 10:04:38;;;;;;;130.35;17.95;;;24.60;87.90;;;;;;5060827;28;20037;-60
2023/08/26 10:07:03;;;;;;;153.32;20.33;;;24.60;87.80;;;;;;5062806;28;20029;-60
2023/08/26 10:09:41;;;;;;;166.18;19.23;;;24.60;87.80;;;;;;5062151;28;20093;-60
2023/08/26 10:12:10;;;;;;;117.60;18.10;;;24.60;88.00;;;;;;5039859;28;20469;-60
2023/08/26 10:14:36;;;;;;;140.68;17.00;;;24.60;88.00;;;;;;5025058;28;20060;-60
2023/08/26 10:17:02;;;;;;;191.57;21.52;;;24.60;87.70;;;;;;5027331;28;20042;-60
2023/08/26 10:19:28;;;;;;;162.20;19.40;;;24.60;87.80;;;;;;5026979;28;20113;-60
2023/08/26 10:21:54;;;;;;;134.68;16.98;;;24.50;87.70;;;;;;5057516;28;20060;-60
2023/08/26 10:24:20;;;;;;;171.48;21.20;;;24.50;87.80;;;;;;5065873;28;20029;-60
2023/08/26 10:26:46;;;;;;;194.23;23.65;;;24.50;87.90;;;;;;5066852;28;20033;-60
2023/08/26 10:29:11;;;;;;;174.18;21.10;;;24.50;88.70;;;;;;5061153;28;20028;-60
2023/08/26 10:31:42;;;;;;;156.73;18.48;;;24.50;88.60;;;;;;5046865;28;20099;-59
2023/08/26 10:34:07;;;;;;;117.70;18.00;;;24.50;88.50;;;;;;5046672;28;20081;-60
2023/08/26 10:36:36;;;;;;;136.15;16.77;;;24.50;88.20;;;;;;5047914;28;20044;-61
2023/08/26 10:39:02;;;;;;;171.07;18.85;;;24.50;88.40;;;;;;5045577;28;20021;-61
2023/08/26 10:41:28;;;;;;;279.63;30.02;;;24.40;89.00;;;;;;5049605;28;20515;-62
2023/08/26 10:43:54;;;;;;;131.73;17.35;;;24.40;88.90;;;;;;5066045;28;20028;-63
2023/08/26 10:46:33;;;;;;;194.98;21.38;;;24.30;89.10;;;;;;5066436;28;20108;-62
2023/08/26 10:49:03;;;;;;;266.85;31.08;;;24.20;89.70;;;;;;5065043;28;20032;-62
2023/08/26 10:51:29;;;;;;;176.27;20.83;;;24.20;90.10;;;;;;5066596;28;20029;-62
2023/08/26 10:54:04;;;;;;;166.20;20.42;;;24.10;90.00;;;;;;5065990;28;20416;-62
2023/08/26 10:56:33;;;;;;;125.13;16.75;;;24.10;90.10;;;;;;5066111;28;20040;-62
2023/08/26 10:59:03;;;;;;;142.88;17.42;;;24.10;90.50;;;;;;5058912;28;20030;-61
2023/08/26 11:01:35;;;;;;;174.70;22.35;;;24.10;90.20;;;;;;5055553;28;20056;-61
2023/08/26 11:04:01;;;;;;;129.82;15.98;;;24.10;90.10;;;;;;5065837;28;20040;-61
2023/08/26 11:06:28;;;;;;;154.82;15.43;;;24.10;90.00;;;;;;5065777;28;20029;-61
2023/08/26 11:08:55;;;;;;;113.88;14.35;;;24.10;90.00;;;;;;5064799;28;20176;-62
2023/08/26 11:11:21;;;;;;;107.88;13.98;;;24.10;89.90;;;;;;5065826;28;20148;-61
2023/08/26 11:13:47;;;;;;;193.93;20.65;;;24.10;89.90;;;;;;5065488;28;20025;-61
2023/08/26 11:16:14;;;;;;;188.80;19.85;;;24.00;89.90;;;;;;5048744;28;20029;-61
2023/08/26 11:18:40;;;;;;;155.13;19.65;;;24.00;89.80;;;;;;5064792;28;20029;-61
2023/08/26 11:21:05;;;;;;;346.00;39.05;;;24.00;89.90;;;;;;5064919;28;20081;-61
2023/08/26 11:23:32;;;;;;;310.80;33.03;;;24.00;90.00;;;;;;5065033;28;20033;-61
2023/08/26 11:25:58;;;;;;;253.25;28.95;;;24.00;90.00;;;;;;5064866;28;20027;-61
2023/08/26 11:28:26;;;;;;;163.32;19.15;;;24.00;90.10;;;;;;5065464;28;20530;-61
2023/08/26 11:30:51;;;;;;;224.85;25.02;;;24.00;90.10;;;;;;5055304;28;20025;-61
2023/08/26 11:33:17;;;;;;;141.05;17.40;;;23.90;90.10;;;;;;5045772;28;20090;-61
2023/08/26 11:35:46;;;;;;;93.05;13.55;;;23.90;90.00;;;;;;5045580;28;20140;-61
2023/08/26 11:38:12;;;;;;;125.75;17.30;;;23.90;90.00;;;;;;5045056;28;20037;-61
2023/08/26 11:40:38;;;;;;;137.15;18.60;;;23.80;90.20;;;;;;5053816;28;20080;-61
2023/08/26 11:43:07;;;;;;;108.25;14.63;;;23.80;90.30;;;;;;5044388;28;20030;-61
2023/08/26 11:45:34;;;;;;;205.70;23.83;;;23.80;90.30;;;;;;5046305;28;20045;-61
2023/08/26 11:47:59;;;;;;;104.00;13.90;;;23.80;90.20;;;;;;5049110;28;20022;-61
2023/08/26 11:50:26;;;;;;;148.00;15.95;;;23.80;90.10;;;;;;5064029;28;20350;-61
2023/08/26 11:52:53;;;;;;;101.18;13.45;;;23.70;90.10;;;;;;5066438;28;20021;-61
2023/08/26 11:55:19;;;;;;;137.40;15.90;;;23.70;90.30;;;;;;5065013;28;20159;-61
2023/08/26 11:57:44;;;;;;;89.18;13.25;;;23.70;90.40;;;;;;5064749;28;20053;-61
2023/08/26 12:00:16;;;;;;;115.22;14.43;;;23.70;90.60;;;;;;5044873;28;20029;-60
2023/08/26 12:02:45;;;;;;;99.72;14.20;;;23.60;90.60;;;;;;5044453;28;20052;-61
2023/08/26 12:05:11;;;;;;;121.18;16.48;;;23.70;90.80;;;;;;5044760;28;20021;-61
2023/08/26 12:07:48;;;;;;;101.10;14.40;;;23.60;90.90;;;;;;5051483;28;20017;-60
2023/08/26 12:10:14;;;;;;;97.70;12.98;;;23.50;90.90;;;;;;5042595;28;20474;-61
2023/08/26 12:12:40;;;;;;;132.27;17.10;;;23.50;91.10;;;;;;5044146;28;20021;-60
2023/08/26 12:15:10;;;;;;;181.82;23.05;;;23.50;91.20;;;;;;5044632;28;20052;-61
2023/08/26 12:17:50;;;;;;;232.98;24.38;;;23.50;91.60;;;;;;5043651;28;20338;-61
2023/08/26 12:20:27;;;;;;;124.95;17.60;;;23.50;91.40;;;;;;5041185;28;20088;-61
2023/08/26 12:22:53;;;;;;;216.77;27.42;;;23.50;91.50;;;;;;5043797;28;20056;-61
2023/08/26 12:25:23;;;;;;;104.20;15.80;;;23.50;91.40;;;;;;5043767;28;20048;-61
2023/08/26 12:27:49;;;;;;;131.50;17.05;;;23.50;91.40;;;;;;5044403;28;20071;-61
2023/08/26 12:30:14;;;;;;;260.38;30.70;;;23.50;91.30;;;;;;5045220;28;20406;-61